Aeroporto :
LOGIN :

Iscrizione | Disclaimer

   EN    FR    IT 

 










Sommario :    VFR   VFR Marginale   IFR   IFR Intensivo   IFR Molto Intensivo
Visibilità : 
Base nubi : 
>= 8 km
>= 3000ft
5 / 8 km
1000 / 3000 ft
1500m / 5 km
500 / 1000 ft
800 / 1500m
200 / 500 ft
< 800m
< 200 ft
Simboli :   Temporali  Nebbia  Neve Forte  Precipitazioni Forti  Vento > 20 kt
SIGMETs :   Varie  Temporali  Ghiacco  Turbolenza  Onda orograficha  Ceneri Vulcaniche







- Altitudine del aeroporto : 31 ft
- Codice IATA : INV
- Carte del aeroporto


EGPE - Inverness

ULTIMO METAR :
  • 230150Z 25002KT 9999 BKN025 14/13 Q1012

METARs OBSOLETI :
  • 230120Z AUTO 24005KT 9999 BKN021/// OVC026/// 14/13 Q1012
  • 230050Z AUTO 22007KT 9999 BKN026/// OVC034/// 14/13 Q1012
  • 230020Z AUTO 22008KT 9999 BKN024/// OVC033/// 14/12 Q1012
  • 222350Z AUTO 21011KT 9999 BKN031/// OVC039/// 14/12 Q1012
  • 222320Z AUTO 21011KT 9999 SCT031/// BKN041/// 14/12 Q1011

TAF TAF EGPE
Valido dal 23 a 00 ore il 23 a 09 ore UTC


222259Z 2300/2309 22009KT 9999 FEW030
PROB40
TEMPO 2300/2309 23020G30KT
PROB30
TEMPO 2300/2307 8000 -RA
ATIS : +44 1667 464 255
Nessun NOTAM noto per questo aeroporto.



MetMap, La meteo Aeronautica in un colpo d'occhio ! - Copyright ORBIFLY Dicembre 2007 - Disclaimer

ORBIFLY MET'MAP TEAM :

Programmazione e sviluppo : Alexandra Zaïnal
Concezione e sviluppo : Baudouin d'Aumeries
Co-Programmazione e sviluppo : Marc-Olivier Méhu
Supporto tecnico e logistico : Manuel Goepfert
Aiuto per la traduzione : Arnaldo La Scala

Contatto : metmap@orbifly.com




FONTI E CREDITI :

   NOAA